sensor_id;sensor_type;location;lat;lon;timestamp;temperature;humidity
19561;DHT22;9927;47.792;10.616;2023-05-07T03:01:30;10.90;99.90
19561;DHT22;9927;47.792;10.616;2023-05-07T03:03:57;10.80;99.90
19561;DHT22;9927;47.792;10.616;2023-05-07T03:06:24;10.80;99.90
19561;DHT22;9927;47.792;10.616;2023-05-07T03:08:51;10.80;99.90
19561;DHT22;9927;47.792;10.616;2023-05-07T03:11:19;10.80;99.90
19561;DHT22;9927;47.792;10.616;2023-05-07T03:13:46;10.80;99.90
19561;DHT22;9927;47.792;10.616;2023-05-07T03:16:15;10.70;99.90
19561;DHT22;9927;47.792;10.616;2023-05-07T03:18:43;10.70;99.90
19561;DHT22;9927;47.792;10.616;2023-05-07T03:21:10;10.70;99.90
19561;DHT22;9927;47.792;10.616;2023-05-07T03:23:38;10.40;99.90
19561;DHT22;9927;47.792;10.616;2023-05-07T03:26:05;10.40;99.90
19561;DHT22;9927;47.792;10.616;2023-05-07T03:28:32;10.40;99.90
19561;DHT22;9927;47.792;10.616;2023-05-07T03:30:59;10.50;99.90
19561;DHT22;9927;47.792;10.616;2023-05-07T03:33:27;10.50;99.90
19561;DHT22;9927;47.792;10.616;2023-05-07T03:35:54;10.40;99.90
19561;DHT22;9927;47.792;10.616;2023-05-07T03:38:21;10.40;99.90
19561;DHT22;9927;47.792;10.616;2023-05-07T03:40:49;10.50;99.90
19561;DHT22;9927;47.792;10.616;2023-05-07T03:43:16;10.50;99.90
19561;DHT22;9927;47.792;10.616;2023-05-07T03:45:43;10.50;99.90
19561;DHT22;9927;47.792;10.616;2023-05-07T03:48:10;10.50;99.90
19561;DHT22;9927;47.792;10.616;2023-05-07T03:50:37;10.50;99.90
19561;DHT22;9927;47.792;10.616;2023-05-07T03:53:05;10.50;99.90
19561;DHT22;9927;47.792;10.616;2023-05-07T03:55:32;10.30;99.90
19561;DHT22;9927;47.792;10.616;2023-05-07T03:57:59;10.30;99.90
19561;DHT22;9927;47.792;10.616;2023-05-07T04:00:27;10.30;99.90
19561;DHT22;9927;47.792;10.616;2023-05-07T04:02:54;10.30;99.90
19561;DHT22;9927;47.792;10.616;2023-05-07T04:05:21;10.20;99.90
19561;DHT22;9927;47.792;10.616;2023-05-07T04:07:48;10.30;99.90
19561;DHT22;9927;47.792;10.616;2023-05-07T04:10:16;10.30;99.90
19561;DHT22;9927;47.792;10.616;2023-05-07T04:12:43;10.40;99.90
19561;DHT22;9927;47.792;10.616;2023-05-07T04:15:10;10.40;99.90
19561;DHT22;9927;47.792;10.616;2023-05-07T04:17:38;10.40;99.90
19561;DHT22;9927;47.792;10.616;2023-05-07T04:20:15;10.60;99.90
19561;DHT22;9927;47.792;10.616;2023-05-07T04:22:43;10.60;99.90
19561;DHT22;9927;47.792;10.616;2023-05-07T04:25:10;10.50;99.90
19561;DHT22;9927;47.792;10.616;2023-05-07T04:27:37;10.30;99.90
19561;DHT22;9927;47.792;10.616;2023-05-07T04:32:33;10.00;99.90
19561;DHT22;9927;47.792;10.616;2023-05-07T04:35:01;10.20;99.90
19561;DHT22;9927;47.792;10.616;2023-05-07T04:37:28;10.00;99.90
19561;DHT22;9927;47.792;10.616;2023-05-07T04:40:02;9.80;99.90
19561;DHT22;9927;47.792;10.616;2023-05-07T04:42:30;10.00;99.90
19561;DHT22;9927;47.792;10.616;2023-05-07T04:44:58;10.10;99.90
19561;DHT22;9927;47.792;10.616;2023-05-07T04:47:25;10.40;99.90
19561;DHT22;9927;47.792;10.616;2023-05-07T04:50:15;10.70;99.90
19561;DHT22;9927;47.792;10.616;2023-05-07T04:55:33;11.00;99.90
19561;DHT22;9927;47.792;10.616;2023-05-07T05:02:57;10.90;99.90
19561;DHT22;9927;47.792;10.616;2023-05-07T05:05:24;11.00;99.90
19561;DHT22;9927;47.792;10.616;2023-05-07T05:07:52;11.10;99.90
19561;DHT22;9927;47.792;10.616;2023-05-07T05:10:20;11.00;99.90
19561;DHT22;9927;47.792;10.616;2023-05-07T05:12:50;11.10;99.90
19561;DHT22;9927;47.792;10.616;2023-05-07T05:15:18;11.40;99.90
19561;DHT22;9927;47.792;10.616;2023-05-07T05:17:45;11.60;99.90
19561;DHT22;9927;47.792;10.616;2023-05-07T05:20:12;11.70;99.90
19561;DHT22;9927;47.792;10.616;2023-05-07T05:22:40;11.50;99.90
19561;DHT22;9927;47.792;10.616;2023-05-07T05:28:06;12.10;99.90
19561;DHT22;9927;47.792;10.616;2023-05-07T05:30:33;14.10;99.90
19561;DHT22;9927;47.792;10.616;2023-05-07T05:35:49;15.00;99.90
19561;DHT22;9927;47.792;10.616;2023-05-07T05:38:18;14.90;99.90
19561;DHT22;9927;47.792;10.616;2023-05-07T05:40:54;14.90;99.90
19561;DHT22;9927;47.792;10.616;2023-05-07T05:43:22;15.00;99.90
19561;DHT22;9927;47.792;10.616;2023-05-07T05:45:50;15.00;99.90
19561;DHT22;9927;47.792;10.616;2023-05-07T05:48:17;15.50;99.90
19561;DHT22;9927;47.792;10.616;2023-05-07T05:50:44;16.80;99.90
19561;DHT22;9927;47.792;10.616;2023-05-07T05:53:11;17.00;99.90
19561;DHT22;9927;47.792;10.616;2023-05-07T05:55:39;17.40;99.90
19561;DHT22;9927;47.792;10.616;2023-05-07T05:58:06;17.30;99.90
19561;DHT22;9927;47.792;10.616;2023-05-07T06:00:33;17.30;99.90
19561;DHT22;9927;47.792;10.616;2023-05-07T06:03:00;17.40;99.90
19561;DHT22;9927;47.792;10.616;2023-05-07T06:05:28;17.90;99.90
19561;DHT22;9927;47.792;10.616;2023-05-07T06:07:55;18.60;99.90
19561;DHT22;9927;47.792;10.616;2023-05-07T06:10:22;19.60;99.90
19561;DHT22;9927;47.792;10.616;2023-05-07T06:12:51;20.30;99.90
19561;DHT22;9927;47.792;10.616;2023-05-07T06:15:18;21.00;99.90
19561;DHT22;9927;47.792;10.616;2023-05-07T06:17:45;21.40;99.90
19561;DHT22;9927;47.792;10.616;2023-05-07T06:20:12;21.20;99.90
19561;DHT22;9927;47.792;10.616;2023-05-07T06:22:40;22.00;99.90
19561;DHT22;9927;47.792;10.616;2023-05-07T06:25:08;22.40;99.90
19561;DHT22;9927;47.792;10.616;2023-05-07T06:27:35;22.70;99.90
19561;DHT22;9927;47.792;10.616;2023-05-07T06:30:02;22.90;99.90
19561;DHT22;9927;47.792;10.616;2023-05-07T06:32:30;23.50;99.90
19561;DHT22;9927;47.792;10.616;2023-05-07T06:34:57;23.80;99.90
19561;DHT22;9927;47.792;10.616;2023-05-07T06:37:24;23.60;98.20
19561;DHT22;9927;47.792;10.616;2023-05-07T06:39:52;23.10;99.90
19561;DHT22;9927;47.792;10.616;2023-05-07T06:42:19;23.00;99.90
19561;DHT22;9927;47.792;10.616;2023-05-07T06:44:46;22.70;99.90
19561;DHT22;9927;47.792;10.616;2023-05-07T06:47:13;22.60;99.90
19561;DHT22;9927;47.792;10.616;2023-05-07T06:49:42;22.20;99.90
19561;DHT22;9927;47.792;10.616;2023-05-07T06:52:09;22.20;99.90
19561;DHT22;9927;47.792;10.616;2023-05-07T06:54:36;22.70;99.90
19561;DHT22;9927;47.792;10.616;2023-05-07T06:57:04;23.40;99.90
19561;DHT22;9927;47.792;10.616;2023-05-07T06:59:31;23.80;99.90
19561;DHT22;9927;47.792;10.616;2023-05-07T07:01:59;24.40;98.60
19561;DHT22;9927;47.792;10.616;2023-05-07T07:04:26;24.80;98.70
19561;DHT22;9927;47.792;10.616;2023-05-07T07:06:54;25.30;97.10
19561;DHT22;9927;47.792;10.616;2023-05-07T07:09:21;24.90;94.90
19561;DHT22;9927;47.792;10.616;2023-05-07T07:11:50;24.30;97.10
19561;DHT22;9927;47.792;10.616;2023-05-07T07:14:17;24.60;95.80
19561;DHT22;9927;47.792;10.616;2023-05-07T07:16:44;24.90;96.60
19561;DHT22;9927;47.792;10.616;2023-05-07T07:19:13;24.80;95.70
19561;DHT22;9927;47.792;10.616;2023-05-07T07:21:42;25.10;95.10
19561;DHT22;9927;47.792;10.616;2023-05-07T07:24:10;25.00;95.30
19561;DHT22;9927;47.792;10.616;2023-05-07T07:26:37;25.50;95.40
19561;DHT22;9927;47.792;10.616;2023-05-07T07:29:04;25.90;95.40
19561;DHT22;9927;47.792;10.616;2023-05-07T07:31:31;26.40;93.50
19561;DHT22;9927;47.792;10.616;2023-05-07T07:33:58;26.70;93.80
19561;DHT22;9927;47.792;10.616;2023-05-07T07:36:26;27.00;91.00
19561;DHT22;9927;47.792;10.616;2023-05-07T07:39:11;27.40;90.20
19561;DHT22;9927;47.792;10.616;2023-05-07T07:41:38;27.40;88.20
19561;DHT22;9927;47.792;10.616;2023-05-07T07:44:05;27.60;87.70
19561;DHT22;9927;47.792;10.616;2023-05-07T07:46:34;27.50;87.50
19561;DHT22;9927;47.792;10.616;2023-05-07T07:49:01;27.80;82.40
19561;DHT22;9927;47.792;10.616;2023-05-07T07:51:29;27.80;83.10
19561;DHT22;9927;47.792;10.616;2023-05-07T07:53:56;28.00;79.30
19561;DHT22;9927;47.792;10.616;2023-05-07T07:56:24;27.90;79.20
19561;DHT22;9927;47.792;10.616;2023-05-07T07:58:52;27.80;81.30
19561;DHT22;9927;47.792;10.616;2023-05-07T08:01:19;27.60;81.30
19561;DHT22;9927;47.792;10.616;2023-05-07T08:03:46;27.20;86.60
19561;DHT22;9927;47.792;10.616;2023-05-07T08:06:15;28.00;81.50
19561;DHT22;9927;47.792;10.616;2023-05-07T08:08:42;28.40;80.80
19561;DHT22;9927;47.792;10.616;2023-05-07T08:11:10;28.40;80.00
19561;DHT22;9927;47.792;10.616;2023-05-07T08:13:38;28.40;81.70
19561;DHT22;9927;47.792;10.616;2023-05-07T08:16:05;28.20;80.40
19561;DHT22;9927;47.792;10.616;2023-05-07T08:18:32;28.30;81.60
19561;DHT22;9927;47.792;10.616;2023-05-07T08:21:00;28.90;82.10
19561;DHT22;9927;47.792;10.616;2023-05-07T08:23:28;29.40;81.70
19561;DHT22;9927;47.792;10.616;2023-05-07T08:25:55;29.50;82.20
19561;DHT22;9927;47.792;10.616;2023-05-07T08:28:22;29.80;81.00
19561;DHT22;9927;47.792;10.616;2023-05-07T08:30:51;30.00;80.10
19561;DHT22;9927;47.792;10.616;2023-05-07T08:33:19;30.00;79.10
19561;DHT22;9927;47.792;10.616;2023-05-07T08:35:46;30.20;80.00
19561;DHT22;9927;47.792;10.616;2023-05-07T08:38:13;30.30;77.70
19561;DHT22;9927;47.792;10.616;2023-05-07T08:40:40;29.50;74.40
19561;DHT22;9927;47.792;10.616;2023-05-07T08:43:08;29.50;77.20
19561;DHT22;9927;47.792;10.616;2023-05-07T08:45:40;29.40;80.10
19561;DHT22;9927;47.792;10.616;2023-05-07T08:48:15;30.00;75.50
19561;DHT22;9927;47.792;10.616;2023-05-07T08:50:43;30.00;72.50
19561;DHT22;9927;47.792;10.616;2023-05-07T08:53:10;30.10;75.00
19561;DHT22;9927;47.792;10.616;2023-05-07T08:55:37;29.60;74.80
19561;DHT22;9927;47.792;10.616;2023-05-07T08:58:05;29.20;76.10
19561;DHT22;9927;47.792;10.616;2023-05-07T09:00:32;28.60;76.60
19561;DHT22;9927;47.792;10.616;2023-05-07T09:03:00;28.60;76.70
19561;DHT22;9927;47.792;10.616;2023-05-07T09:05:28;28.60;78.90
19561;DHT22;9927;47.792;10.616;2023-05-07T09:07:55;28.20;76.70
19561;DHT22;9927;47.792;10.616;2023-05-07T09:10:25;27.80;78.60
19561;DHT22;9927;47.792;10.616;2023-05-07T09:12:53;27.10;80.80
19561;DHT22;9927;47.792;10.616;2023-05-07T09:15:20;26.40;82.60
19561;DHT22;9927;47.792;10.616;2023-05-07T09:17:47;26.40;85.80
19561;DHT22;9927;47.792;10.616;2023-05-07T09:20:16;26.30;83.90
19561;DHT22;9927;47.792;10.616;2023-05-07T09:22:43;26.40;85.10
19561;DHT22;9927;47.792;10.616;2023-05-07T09:25:11;26.60;87.00
19561;DHT22;9927;47.792;10.616;2023-05-07T09:27:41;26.50;84.10
19561;DHT22;9927;47.792;10.616;2023-05-07T09:30:08;26.30;85.20
19561;DHT22;9927;47.792;10.616;2023-05-07T09:32:36;26.10;80.30
19561;DHT22;9927;47.792;10.616;2023-05-07T09:35:15;26.00;82.00
19561;DHT22;9927;47.792;10.616;2023-05-07T09:37:44;26.00;83.70
19561;DHT22;9927;47.792;10.616;2023-05-07T09:40:27;25.90;86.70
19561;DHT22;9927;47.792;10.616;2023-05-07T09:42:55;26.30;88.40
19561;DHT22;9927;47.792;10.616;2023-05-07T09:45:26;26.60;85.90
19561;DHT22;9927;47.792;10.616;2023-05-07T09:47:57;26.80;82.90
19561;DHT22;9927;47.792;10.616;2023-05-07T09:50:27;26.50;77.60
19561;DHT22;9927;47.792;10.616;2023-05-07T09:52:56;26.50;78.10
19561;DHT22;9927;47.792;10.616;2023-05-07T09:55:23;25.90;75.30
19561;DHT22;9927;47.792;10.616;2023-05-07T09:57:52;25.50;73.50
19561;DHT22;9927;47.792;10.616;2023-05-07T10:00:21;25.10;76.40
19561;DHT22;9927;47.792;10.616;2023-05-07T10:02:50;24.60;78.30
19561;DHT22;9927;47.792;10.616;2023-05-07T10:05:19;24.80;80.10
19561;DHT22;9927;47.792;10.616;2023-05-07T10:07:50;25.10;81.10
19561;DHT22;9927;47.792;10.616;2023-05-07T10:10:17;25.00;81.00
19561;DHT22;9927;47.792;10.616;2023-05-07T10:12:45;25.20;83.70
19561;DHT22;9927;47.792;10.616;2023-05-07T10:15:13;25.20;81.70
19561;DHT22;9927;47.792;10.616;2023-05-07T10:17:41;25.50;84.10
19561;DHT22;9927;47.792;10.616;2023-05-07T10:20:09;25.70;82.80
19561;DHT22;9927;47.792;10.616;2023-05-07T10:22:41;25.90;79.30
19561;DHT22;9927;47.792;10.616;2023-05-07T10:25:19;26.00;78.70
19561;DHT22;9927;47.792;10.616;2023-05-07T10:27:48;25.90;77.70
19561;DHT22;9927;47.792;10.616;2023-05-07T10:30:26;26.00;74.90
19561;DHT22;9927;47.792;10.616;2023-05-07T10:33:01;26.00;70.90
19561;DHT22;9927;47.792;10.616;2023-05-07T10:35:40;25.90;73.80
19561;DHT22;9927;47.792;10.616;2023-05-07T10:38:08;26.10;76.30
19561;DHT22;9927;47.792;10.616;2023-05-07T10:40:35;26.50;75.00
19561;DHT22;9927;47.792;10.616;2023-05-07T10:43:05;26.60;76.50
19561;DHT22;9927;47.792;10.616;2023-05-07T10:45:36;26.20;77.50
19561;DHT22;9927;47.792;10.616;2023-05-07T10:48:13;26.30;76.90
19561;DHT22;9927;47.792;10.616;2023-05-07T10:51:18;26.30;75.50
19561;DHT22;9927;47.792;10.616;2023-05-07T10:53:45;26.20;75.30
19561;DHT22;9927;47.792;10.616;2023-05-07T10:58:46;25.10;78.90
19561;DHT22;9927;47.792;10.616;2023-05-07T11:01:13;25.00;79.00
19561;DHT22;9927;47.792;10.616;2023-05-07T11:04:14;25.00;79.30
19561;DHT22;9927;47.792;10.616;2023-05-07T11:06:42;25.30;83.20
19561;DHT22;9927;47.792;10.616;2023-05-07T11:09:09;25.50;81.70
19561;DHT22;9927;47.792;10.616;2023-05-07T11:11:49;26.00;83.10
19561;DHT22;9927;47.792;10.616;2023-05-07T11:17:10;26.20;84.30
19561;DHT22;9927;47.792;10.616;2023-05-07T11:19:54;26.20;83.30
19561;DHT22;9927;47.792;10.616;2023-05-07T11:25:08;26.00;81.80
19561;DHT22;9927;47.792;10.616;2023-05-07T11:27:36;25.80;80.40
19561;DHT22;9927;47.792;10.616;2023-05-07T11:30:03;25.70;78.50
19561;DHT22;9927;47.792;10.616;2023-05-07T11:32:32;25.80;78.40
19561;DHT22;9927;47.792;10.616;2023-05-07T11:35:00;25.70;78.40
19561;DHT22;9927;47.792;10.616;2023-05-07T11:37:28;25.30;79.40
19561;DHT22;9927;47.792;10.616;2023-05-07T11:40:04;25.10;81.90
19561;DHT22;9927;47.792;10.616;2023-05-07T11:42:36;24.40;85.20
19561;DHT22;9927;47.792;10.616;2023-05-07T11:45:05;24.00;86.70
19561;DHT22;9927;47.792;10.616;2023-05-07T11:47:34;23.50;91.10
19561;DHT22;9927;47.792;10.616;2023-05-07T11:50:06;23.30;92.80
19561;DHT22;9927;47.792;10.616;2023-05-07T11:52:35;22.50;95.10
19561;DHT22;9927;47.792;10.616;2023-05-07T11:55:03;22.40;95.70
19561;DHT22;9927;47.792;10.616;2023-05-07T11:57:33;21.80;95.30
19561;DHT22;9927;47.792;10.616;2023-05-07T12:00:01;21.50;97.10
19561;DHT22;9927;47.792;10.616;2023-05-07T12:02:32;21.20;96.80
19561;DHT22;9927;47.792;10.616;2023-05-07T12:05:00;21.30;97.40
19561;DHT22;9927;47.792;10.616;2023-05-07T12:07:27;21.30;98.50
19561;DHT22;9927;47.792;10.616;2023-05-07T12:09:55;21.30;99.40
19561;DHT22;9927;47.792;10.616;2023-05-07T12:12:22;21.40;99.90
19561;DHT22;9927;47.792;10.616;2023-05-07T12:14:49;21.50;99.90
19561;DHT22;9927;47.792;10.616;2023-05-07T12:17:17;21.80;99.90
19561;DHT22;9927;47.792;10.616;2023-05-07T12:19:45;21.90;99.90
19561;DHT22;9927;47.792;10.616;2023-05-07T12:22:13;21.80;99.90
19561;DHT22;9927;47.792;10.616;2023-05-07T12:24:47;21.80;99.90
19561;DHT22;9927;47.792;10.616;2023-05-07T12:27:16;21.50;99.90
19561;DHT22;9927;47.792;10.616;2023-05-07T12:29:47;21.40;99.90
19561;DHT22;9927;47.792;10.616;2023-05-07T12:32:19;21.60;99.90
19561;DHT22;9927;47.792;10.616;2023-05-07T12:34:50;21.80;99.90
19561;DHT22;9927;47.792;10.616;2023-05-07T12:37:25;21.90;99.90
19561;DHT22;9927;47.792;10.616;2023-05-07T12:40:10;22.00;99.90
19561;DHT22;9927;47.792;10.616;2023-05-07T12:42:39;22.10;99.90
19561;DHT22;9927;47.792;10.616;2023-05-07T12:47:37;22.00;99.90
19561;DHT22;9927;47.792;10.616;2023-05-07T12:50:06;21.90;99.90
19561;DHT22;9927;47.792;10.616;2023-05-07T12:52:34;22.10;99.90
19561;DHT22;9927;47.792;10.616;2023-05-07T12:55:05;22.30;99.90
19561;DHT22;9927;47.792;10.616;2023-05-07T12:57:40;22.50;99.90
19561;DHT22;9927;47.792;10.616;2023-05-07T13:00:09;22.70;99.90
19561;DHT22;9927;47.792;10.616;2023-05-07T13:02:41;22.70;99.90
19561;DHT22;9927;47.792;10.616;2023-05-07T13:05:08;22.60;99.90
19561;DHT22;9927;47.792;10.616;2023-05-07T13:07:37;22.80;99.90
19561;DHT22;9927;47.792;10.616;2023-05-07T13:10:05;23.00;99.90
19561;DHT22;9927;47.792;10.616;2023-05-07T13:12:33;23.20;99.90
19561;DHT22;9927;47.792;10.616;2023-05-07T13:15:00;23.30;99.90
19561;DHT22;9927;47.792;10.616;2023-05-07T13:17:27;23.40;99.90
19561;DHT22;9927;47.792;10.616;2023-05-07T13:19:54;23.40;99.90
19561;DHT22;9927;47.792;10.616;2023-05-07T13:22:22;23.50;99.90
19561;DHT22;9927;47.792;10.616;2023-05-07T13:24:49;23.50;99.90
19561;DHT22;9927;47.792;10.616;2023-05-07T13:27:18;23.50;99.40
19561;DHT22;9927;47.792;10.616;2023-05-07T13:29:46;23.50;98.50
19561;DHT22;9927;47.792;10.616;2023-05-07T13:32:13;23.40;98.50
19561;DHT22;9927;47.792;10.616;2023-05-07T13:34:41;23.30;96.60
19561;DHT22;9927;47.792;10.616;2023-05-07T13:37:08;23.00;96.20
19561;DHT22;9927;47.792;10.616;2023-05-07T13:39:37;22.90;96.30
19561;DHT22;9927;47.792;10.616;2023-05-07T13:42:04;22.70;96.20
19561;DHT22;9927;47.792;10.616;2023-05-07T13:44:32;22.00;97.10
19561;DHT22;9927;47.792;10.616;2023-05-07T13:46:59;22.10;97.60
19561;DHT22;9927;47.792;10.616;2023-05-07T13:49:27;21.90;98.00
19561;DHT22;9927;47.792;10.616;2023-05-07T13:51:54;21.80;97.50
19561;DHT22;9927;47.792;10.616;2023-05-07T13:54:22;21.70;96.20
19561;DHT22;9927;47.792;10.616;2023-05-07T13:56:49;21.50;95.70
19561;DHT22;9927;47.792;10.616;2023-05-07T13:59:16;21.40;96.60
19561;DHT22;9927;47.792;10.616;2023-05-07T14:01:43;21.60;96.70
19561;DHT22;9927;47.792;10.616;2023-05-07T14:04:11;21.80;97.50
19561;DHT22;9927;47.792;10.616;2023-05-07T14:06:38;22.10;97.60
19561;DHT22;9927;47.792;10.616;2023-05-07T14:09:06;22.30;97.70
19561;DHT22;9927;47.792;10.616;2023-05-07T14:11:33;22.70;96.50
19561;DHT22;9927;47.792;10.616;2023-05-07T14:14:02;22.80;96.80
19561;DHT22;9927;47.792;10.616;2023-05-07T14:16:29;22.90;96.40
19561;DHT22;9927;47.792;10.616;2023-05-07T14:18:57;22.80;95.50
19561;DHT22;9927;47.792;10.616;2023-05-07T14:21:24;22.70;95.30
19561;DHT22;9927;47.792;10.616;2023-05-07T14:23:52;22.70;96.30
19561;DHT22;9927;47.792;10.616;2023-05-07T14:26:19;22.60;96.30
19561;DHT22;9927;47.792;10.616;2023-05-07T14:28:47;22.80;96.50
19561;DHT22;9927;47.792;10.616;2023-05-07T14:31:15;22.80;95.60
19561;DHT22;9927;47.792;10.616;2023-05-07T14:33:42;22.90;95.40
19561;DHT22;9927;47.792;10.616;2023-05-07T14:36:09;22.90;94.60
19561;DHT22;9927;47.792;10.616;2023-05-07T14:38:36;23.00;93.30
19561;DHT22;9927;47.792;10.616;2023-05-07T14:41:04;23.00;92.20
19561;DHT22;9927;47.792;10.616;2023-05-07T14:43:31;22.90;92.40
19561;DHT22;9927;47.792;10.616;2023-05-07T14:45:58;23.00;91.00
19561;DHT22;9927;47.792;10.616;2023-05-07T14:48:25;23.10;90.70
19561;DHT22;9927;47.792;10.616;2023-05-07T14:50:53;23.00;84.40
19561;DHT22;9927;47.792;10.616;2023-05-07T14:53:20;23.00;86.30
19561;DHT22;9927;47.792;10.616;2023-05-07T14:55:47;23.20;87.90
19561;DHT22;9927;47.792;10.616;2023-05-07T14:58:15;23.20;84.00
19561;DHT22;9927;47.792;10.616;2023-05-07T15:00:42;22.70;84.50
19561;DHT22;9927;47.792;10.616;2023-05-07T15:03:10;22.70;85.40
19561;DHT22;9927;47.792;10.616;2023-05-07T15:05:38;22.60;88.30
19561;DHT22;9927;47.792;10.616;2023-05-07T15:08:05;22.50;88.40
19561;DHT22;9927;47.792;10.616;2023-05-07T15:10:36;22.20;88.70
19561;DHT22;9927;47.792;10.616;2023-05-07T15:13:09;22.20;89.20
19561;DHT22;9927;47.792;10.616;2023-05-07T15:15:42;22.00;88.90
19561;DHT22;9927;47.792;10.616;2023-05-07T15:18:10;21.90;88.00
19561;DHT22;9927;47.792;10.616;2023-05-07T15:20:38;21.60;89.80
19561;DHT22;9927;47.792;10.616;2023-05-07T15:23:06;21.60;90.00
19561;DHT22;9927;47.792;10.616;2023-05-07T15:25:36;21.60;89.30
19561;DHT22;9927;47.792;10.616;2023-05-07T15:28:04;21.40;90.00
19561;DHT22;9927;47.792;10.616;2023-05-07T15:30:31;21.10;90.70
19561;DHT22;9927;47.792;10.616;2023-05-07T15:32:58;21.10;91.70
19561;DHT22;9927;47.792;10.616;2023-05-07T15:35:25;21.00;91.90
19561;DHT22;9927;47.792;10.616;2023-05-07T15:37:53;21.10;91.90
19561;DHT22;9927;47.792;10.616;2023-05-07T15:40:20;21.20;92.20
19561;DHT22;9927;47.792;10.616;2023-05-07T15:42:47;21.00;92.10
19561;DHT22;9927;47.792;10.616;2023-05-07T15:45:15;20.90;92.30
19561;DHT22;9927;47.792;10.616;2023-05-07T15:47:42;20.90;93.00
19561;DHT22;9927;47.792;10.616;2023-05-07T15:50:10;21.10;92.90
19561;DHT22;9927;47.792;10.616;2023-05-07T15:52:37;21.00;93.00
19561;DHT22;9927;47.792;10.616;2023-05-07T15:55:05;21.00;93.50
19561;DHT22;9927;47.792;10.616;2023-05-07T15:57:33;21.00;94.40
19561;DHT22;9927;47.792;10.616;2023-05-07T16:00:01;21.00;94.10
19561;DHT22;9927;47.792;10.616;2023-05-07T16:02:29;20.90;94.60
19561;DHT22;9927;47.792;10.616;2023-05-07T16:04:57;20.80;95.40
19561;DHT22;9927;47.792;10.616;2023-05-07T16:07:24;20.80;95.10
19561;DHT22;9927;47.792;10.616;2023-05-07T16:09:52;20.80;95.70
19561;DHT22;9927;47.792;10.616;2023-05-07T16:12:19;20.70;95.30
19561;DHT22;9927;47.792;10.616;2023-05-07T16:14:46;20.70;95.80
19561;DHT22;9927;47.792;10.616;2023-05-07T16:17:13;20.90;96.10
19561;DHT22;9927;47.792;10.616;2023-05-07T16:19:41;20.70;95.80
19561;DHT22;9927;47.792;10.616;2023-05-07T16:22:08;20.70;96.20
19561;DHT22;9927;47.792;10.616;2023-05-07T16:24:35;20.70;96.70
19561;DHT22;9927;47.792;10.616;2023-05-07T16:27:02;20.70;97.30
19561;DHT22;9927;47.792;10.616;2023-05-07T16:29:29;20.60;97.30
19561;DHT22;9927;47.792;10.616;2023-05-07T16:31:57;20.50;97.60
19561;DHT22;9927;47.792;10.616;2023-05-07T16:34:24;20.40;97.80
19561;DHT22;9927;47.792;10.616;2023-05-07T16:36:52;20.40;97.70
19561;DHT22;9927;47.792;10.616;2023-05-07T16:39:19;20.20;98.90
19561;DHT22;9927;47.792;10.616;2023-05-07T16:41:46;20.00;99.30
19561;DHT22;9927;47.792;10.616;2023-05-07T16:44:17;20.00;99.60
19561;DHT22;9927;47.792;10.616;2023-05-07T16:46:44;19.70;99.90
19561;DHT22;9927;47.792;10.616;2023-05-07T16:49:12;19.70;99.90
19561;DHT22;9927;47.792;10.616;2023-05-07T16:51:39;19.60;99.90
19561;DHT22;9927;47.792;10.616;2023-05-07T16:54:09;19.50;99.90
19561;DHT22;9927;47.792;10.616;2023-05-07T16:56:37;19.40;99.90
19561;DHT22;9927;47.792;10.616;2023-05-07T16:59:04;19.30;99.90
19561;DHT22;9927;47.792;10.616;2023-05-07T17:01:33;19.00;99.90
19561;DHT22;9927;47.792;10.616;2023-05-07T17:04:00;19.00;99.90
19561;DHT22;9927;47.792;10.616;2023-05-07T17:06:27;19.00;99.90
19561;DHT22;9927;47.792;10.616;2023-05-07T17:11:22;18.60;99.90
19561;DHT22;9927;47.792;10.616;2023-05-07T17:13:49;18.60;99.90
19561;DHT22;9927;47.792;10.616;2023-05-07T17:16:17;18.60;99.90
19561;DHT22;9927;47.792;10.616;2023-05-07T17:18:45;18.60;99.90
19561;DHT22;9927;47.792;10.616;2023-05-07T17:21:12;18.30;99.90
19561;DHT22;9927;47.792;10.616;2023-05-07T17:23:40;18.10;99.90
19561;DHT22;9927;47.792;10.616;2023-05-07T17:26:11;17.80;99.90
19561;DHT22;9927;47.792;10.616;2023-05-07T17:28:39;17.70;99.90
19561;DHT22;9927;47.792;10.616;2023-05-07T17:31:07;17.90;99.90
19561;DHT22;9927;47.792;10.616;2023-05-07T17:33:35;17.90;99.90
19561;DHT22;9927;47.792;10.616;2023-05-07T17:36:03;18.00;99.90
19561;DHT22;9927;47.792;10.616;2023-05-07T17:38:31;18.00;99.90
19561;DHT22;9927;47.792;10.616;2023-05-07T17:40:58;17.80;99.90
19561;DHT22;9927;47.792;10.616;2023-05-07T17:43:25;17.70;99.90
19561;DHT22;9927;47.792;10.616;2023-05-07T17:45:52;17.20;99.90
19561;DHT22;9927;47.792;10.616;2023-05-07T17:48:20;17.20;99.90
19561;DHT22;9927;47.792;10.616;2023-05-07T17:50:47;17.30;99.90
19561;DHT22;9927;47.792;10.616;2023-05-07T17:53:14;17.30;99.90
19561;DHT22;9927;47.792;10.616;2023-05-07T17:55:42;17.30;99.90
19561;DHT22;9927;47.792;10.616;2023-05-07T17:58:11;17.30;99.90
19561;DHT22;9927;47.792;10.616;2023-05-07T18:00:38;17.40;99.90
19561;DHT22;9927;47.792;10.616;2023-05-07T18:03:06;17.40;99.90
19561;DHT22;9927;47.792;10.616;2023-05-07T18:05:36;17.40;99.90
19561;DHT22;9927;47.792;10.616;2023-05-07T18:08:05;17.50;99.90
19561;DHT22;9927;47.792;10.616;2023-05-07T18:10:33;17.30;99.90
19561;DHT22;9927;47.792;10.616;2023-05-07T18:13:00;17.30;99.90
19561;DHT22;9927;47.792;10.616;2023-05-07T18:15:27;17.30;99.90
19561;DHT22;9927;47.792;10.616;2023-05-07T18:17:54;17.30;99.90
19561;DHT22;9927;47.792;10.616;2023-05-07T18:20:22;17.10;99.90
19561;DHT22;9927;47.792;10.616;2023-05-07T18:22:49;17.10;99.90
19561;DHT22;9927;47.792;10.616;2023-05-07T18:25:17;17.00;99.90
19561;DHT22;9927;47.792;10.616;2023-05-07T18:27:44;17.00;99.90
19561;DHT22;9927;47.792;10.616;2023-05-07T18:30:12;16.90;99.90
19561;DHT22;9927;47.792;10.616;2023-05-07T18:32:39;16.80;99.90
19561;DHT22;9927;47.792;10.616;2023-05-07T18:35:07;16.80;99.90
19561;DHT22;9927;47.792;10.616;2023-05-07T18:37:34;16.70;99.90
19561;DHT22;9927;47.792;10.616;2023-05-07T18:40:02;16.60;99.90
19561;DHT22;9927;47.792;10.616;2023-05-07T18:42:30;16.50;99.90
19561;DHT22;9927;47.792;10.616;2023-05-07T18:45:01;16.40;99.90
19561;DHT22;9927;47.792;10.616;2023-05-07T18:47:28;16.40;99.90
19561;DHT22;9927;47.792;10.616;2023-05-07T18:49:56;16.30;99.90
19561;DHT22;9927;47.792;10.616;2023-05-07T18:52:23;16.30;99.90
19561;DHT22;9927;47.792;10.616;2023-05-07T18:54:52;16.20;99.90
19561;DHT22;9927;47.792;10.616;2023-05-07T18:57:19;16.20;99.90
19561;DHT22;9927;47.792;10.616;2023-05-07T18:59:46;16.10;99.90
19561;DHT22;9927;47.792;10.616;2023-05-07T19:02:13;16.10;99.90
19561;DHT22;9927;47.792;10.616;2023-05-07T19:04:42;16.20;99.90
19561;DHT22;9927;47.792;10.616;2023-05-07T19:07:09;16.20;99.90